createdAt,value
2023-05-01T00:00:52.510Z,135.13
2023-05-01T00:03:19.478Z,195.10
2023-05-01T00:05:46.246Z,222.15
2023-05-01T00:08:12.626Z,236.23
2023-05-01T00:10:39.652Z,246.40
2023-05-01T00:13:06.310Z,237.40
2023-05-01T00:15:33.643Z,257.23
2023-05-01T00:18:00.388Z,240.43
2023-05-01T00:20:29.927Z,263.58
2023-05-01T00:22:56.378Z,271.33
2023-05-01T00:25:22.723Z,279.35
2023-05-01T00:27:49.135Z,259.42
2023-05-01T00:30:15.656Z,291.50
2023-05-01T00:32:42.045Z,288.17
2023-05-01T00:35:09.026Z,285.67
2023-05-01T00:37:35.611Z,286.27
2023-05-01T00:40:01.999Z,274.23
2023-05-01T00:42:28.360Z,259.13
2023-05-01T00:44:54.732Z,274.17
2023-05-01T00:47:21.454Z,261.83
2023-05-01T00:49:49.512Z,244.73
2023-05-01T00:52:16.395Z,242.52
2023-05-01T00:54:42.734Z,243.25
2023-05-01T00:57:09.524Z,259.90
2023-05-01T00:59:36.313Z,248.52
2023-05-01T01:02:03.076Z,248.97
2023-05-01T01:04:32.195Z,241.67
2023-05-01T01:07:09.614Z,277.10
2023-05-01T01:12:24.717Z,252.60
2023-05-01T01:15:02.438Z,251.80
2023-05-01T01:17:38.577Z,244.43
2023-05-01T01:20:19.189Z,249.07
2023-05-01T01:22:51.499Z,241.55
2023-05-01T01:25:55.471Z,235.95
2023-05-01T01:28:40.767Z,246.18
2023-05-01T01:31:26.496Z,241.73
2023-05-01T01:33:59.129Z,231.57
2023-05-01T01:36:55.983Z,233.05
2023-05-01T01:39:40.787Z,228.75
2023-05-01T01:42:12.708Z,240.50
2023-05-01T01:44:43.277Z,240.45
2023-05-01T01:47:12.651Z,221.82
2023-05-01T01:49:44.382Z,214.32
2023-05-01T01:52:14.206Z,226.75
2023-05-01T01:54:44.894Z,202.98
2023-05-01T01:57:14.380Z,204.88
2023-05-01T01:59:42.137Z,202.23
2023-05-01T02:02:09.169Z,197.75
2023-05-01T02:04:36.315Z,198.02
2023-05-01T02:07:04.186Z,187.30
2023-05-01T02:09:31.286Z,188.82
2023-05-01T02:12:00.216Z,194.20
2023-05-01T02:14:27.534Z,194.23
2023-05-01T02:16:55.703Z,182.85
2023-05-01T02:19:22.435Z,208.40
2023-05-01T02:21:50.220Z,207.40
2023-05-01T02:24:18.248Z,190.73
2023-05-01T02:26:56.582Z,184.93
2023-05-01T02:29:22.925Z,171.63
2023-05-01T02:31:49.320Z,176.85
2023-05-01T02:34:15.738Z,177.77
2023-05-01T02:36:42.731Z,171.73
2023-05-01T02:39:09.231Z,181.20
2023-05-01T02:41:37.694Z,169.35
2023-05-01T02:44:05.776Z,191.15
2023-05-01T02:46:36.056Z,188.40
2023-05-01T02:49:03.883Z,169.23
2023-05-01T02:51:33.886Z,167.90
2023-05-01T02:54:00.414Z,183.80
2023-05-01T02:56:28.030Z,170.10
2023-05-01T03:01:20.868Z,200.90
2023-05-01T03:03:47.379Z,171.88
2023-05-01T03:06:16.451Z,154.18
2023-05-01T03:08:43.190Z,143.02
2023-05-01T03:11:09.548Z,149.50
2023-05-01T03:13:35.997Z,145.85
2023-05-01T03:16:04.437Z,150.15
2023-05-01T03:18:30.977Z,138.32
2023-05-01T03:20:57.520Z,127.38
2023-05-01T03:23:23.926Z,136.65
2023-05-01T03:25:50.908Z,138.90
2023-05-01T03:28:17.544Z,141.85
2023-05-01T03:30:44.646Z,152.73
2023-05-01T03:33:11.182Z,149.40
2023-05-01T03:35:37.786Z,164.30
2023-05-01T03:38:04.257Z,203.67
2023-05-01T03:40:30.657Z,238.80
2023-05-01T03:42:56.997Z,217.95
2023-05-01T03:45:23.576Z,206.43
2023-05-01T03:47:50.194Z,188.75
2023-05-01T03:50:16.709Z,174.88
2023-05-01T03:52:43.062Z,162.82
2023-05-01T03:55:09.635Z,154.00
2023-05-01T03:57:37.026Z,150.98
2023-05-01T04:00:05.501Z,146.43
2023-05-01T04:02:32.003Z,146.27
2023-05-01T04:04:58.523Z,130.23
2023-05-01T04:07:24.895Z,128.10
2023-05-01T04:09:51.252Z,120.30
2023-05-01T04:12:17.729Z,118.95
2023-05-01T04:14:44.696Z,119.07
2023-05-01T04:17:11.534Z,111.55
2023-05-01T04:19:37.918Z,113.80
2023-05-01T04:22:05.535Z,106.03
2023-05-01T04:26:58.669Z,100.82
2023-05-01T04:29:25.086Z,92.43
2023-05-01T04:31:51.473Z,96.80
2023-05-01T04:34:17.880Z,89.38
2023-05-01T04:36:44.346Z,87.63
2023-05-01T04:39:10.761Z,103.20
2023-05-01T04:41:37.119Z,80.97
2023-05-01T04:44:03.488Z,92.82
2023-05-01T04:46:29.907Z,84.13
2023-05-01T04:48:56.283Z,84.95
2023-05-01T04:51:22.676Z,85.15
2023-05-01T04:53:49.114Z,89.90
2023-05-01T04:56:15.705Z,77.82
2023-05-01T04:58:42.236Z,80.03
2023-05-01T05:01:08.639Z,80.85
2023-05-01T05:03:35.459Z,75.88
2023-05-01T05:06:02.003Z,69.28
2023-05-01T05:08:28.385Z,69.05
2023-05-01T05:10:59.857Z,78.13
2023-05-01T05:13:27.002Z,57.72
2023-05-01T05:15:53.537Z,55.67
2023-05-01T05:18:20.018Z,53.35
2023-05-01T05:20:46.660Z,44.92
2023-05-01T05:23:13.134Z,65.47
2023-05-01T05:25:39.476Z,65.15
2023-05-01T05:28:05.806Z,47.72
2023-05-01T05:30:32.190Z,29.27
2023-05-01T05:32:58.547Z,35.28
2023-05-01T05:35:25.037Z,17.50
2023-05-01T05:37:51.530Z,14.65
2023-05-01T05:40:19.270Z,14.30
2023-05-01T05:42:45.619Z,13.18
2023-05-01T05:45:12.214Z,15.00
2023-05-01T05:47:38.735Z,12.57
2023-05-01T05:50:07.362Z,12.52
2023-05-01T05:52:33.754Z,17.55
2023-05-01T05:55:00.336Z,16.45
2023-05-01T05:57:26.680Z,14.03
2023-05-01T05:59:53.069Z,11.27
2023-05-01T06:02:20.248Z,15.40
2023-05-01T06:04:46.656Z,12.20
2023-05-01T06:07:13.049Z,16.25
2023-05-01T06:09:39.450Z,10.73
2023-05-01T06:12:05.908Z,13.05
2023-05-01T06:14:32.483Z,9.98
2023-05-01T06:16:58.858Z,10.27
2023-05-01T06:19:25.886Z,8.68
2023-05-01T06:21:52.332Z,8.90
2023-05-01T06:24:18.717Z,11.00
2023-05-01T06:26:45.129Z,8.88
2023-05-01T06:29:11.571Z,8.20
2023-05-01T06:31:38.048Z,9.60
2023-05-01T06:34:04.565Z,9.48
2023-05-01T06:36:31.581Z,10.13
2023-05-01T06:38:58.120Z,5.40
2023-05-01T06:41:25.854Z,7.23
2023-05-01T06:43:52.589Z,5.82
2023-05-01T06:46:19.023Z,8.07
2023-05-01T06:48:45.687Z,9.50
2023-05-01T06:51:15.017Z,6.63
2023-05-01T06:53:41.685Z,8.68
2023-05-01T06:56:08.491Z,7.82
2023-05-01T06:58:35.148Z,5.75
2023-05-01T07:01:01.832Z,5.00
2023-05-01T07:03:28.353Z,6.63
2023-05-01T07:05:55.390Z,6.75
2023-05-01T07:08:21.949Z,7.82
2023-05-01T07:10:50.048Z,7.40
2023-05-01T07:13:16.994Z,6.85
2023-05-01T07:15:43.348Z,10.02
2023-05-01T07:18:09.707Z,7.90
2023-05-01T07:20:36.088Z,5.80
2023-05-01T07:23:03.488Z,5.43
2023-05-01T07:25:31.018Z,6.03
2023-05-01T07:27:57.379Z,7.00
2023-05-01T07:30:23.875Z,4.50
2023-05-01T07:32:50.566Z,5.35
2023-05-01T07:35:16.998Z,5.75
2023-05-01T07:37:43.328Z,5.38
2023-05-01T07:40:10.217Z,7.63
2023-05-01T07:42:36.557Z,4.90
2023-05-01T07:45:03.513Z,5.13
2023-05-01T07:47:30.117Z,7.20
2023-05-01T07:49:57.060Z,5.82
2023-05-01T07:52:23.665Z,3.78
2023-05-01T07:54:51.174Z,6.70
2023-05-01T07:59:43.983Z,5.63
2023-05-01T08:02:10.374Z,5.45
2023-05-01T08:04:36.820Z,6.28
2023-05-01T08:07:03.197Z,3.70
2023-05-01T08:09:29.584Z,6.53
2023-05-01T08:11:55.958Z,3.30
2023-05-01T08:14:22.432Z,3.55
2023-05-01T08:16:54.229Z,6.75
2023-05-01T08:19:21.013Z,5.90
2023-05-01T08:21:47.346Z,4.68
2023-05-01T08:24:13.720Z,4.00
2023-05-01T08:26:40.114Z,2.53
2023-05-01T08:29:06.554Z,9.18
2023-05-01T08:31:32.980Z,4.60
2023-05-01T08:33:59.371Z,5.75
2023-05-01T08:36:26.600Z,3.75
2023-05-01T08:38:52.960Z,4.63
2023-05-01T08:41:21.898Z,4.20
2023-05-01T08:43:48.890Z,4.60
2023-05-01T08:46:22.726Z,6.10
2023-05-01T08:48:50.654Z,4.57
2023-05-01T08:51:21.211Z,4.38
2023-05-01T08:53:50.693Z,6.30
2023-05-01T08:56:18.149Z,3.17
2023-05-01T09:01:15.858Z,5.85
2023-05-01T09:03:44.558Z,4.78
2023-05-01T09:06:12.358Z,4.05
2023-05-01T09:08:38.934Z,3.88
2023-05-01T09:11:06.408Z,5.00
2023-05-01T09:16:00.799Z,5.30
2023-05-01T09:18:27.411Z,12.48
2023-05-01T09:20:54.980Z,5.40
2023-05-01T09:23:21.340Z,5.55
2023-05-01T09:25:49.612Z,5.03
2023-05-01T09:28:17.956Z,5.03
2023-05-01T09:30:44.592Z,6.13
2023-05-01T09:33:16.733Z,5.53
2023-05-01T09:35:54.473Z,5.82
2023-05-01T09:38:25.655Z,5.50
2023-05-01T09:40:54.087Z,4.05
2023-05-01T09:43:27.993Z,4.32
2023-05-01T09:46:05.385Z,6.13
2023-05-01T09:48:34.987Z,7.00
2023-05-01T09:51:20.660Z,5.22
2023-05-01T09:53:47.031Z,4.68
2023-05-01T09:56:14.626Z,4.53
2023-05-01T09:58:41.027Z,4.93
2023-05-01T10:01:07.460Z,3.28
2023-05-01T10:03:37.596Z,5.37
2023-05-01T10:06:04.419Z,4.10
2023-05-01T10:08:50.621Z,5.43
2023-05-01T10:11:17.112Z,3.73
2023-05-01T10:13:43.569Z,5.82
2023-05-01T10:16:29.718Z,5.87
2023-05-01T10:19:00.334Z,3.75
2023-05-01T10:21:28.347Z,7.93
2023-05-01T10:23:57.590Z,5.85
2023-05-01T10:26:26.240Z,3.70
2023-05-01T10:28:52.891Z,4.43
2023-05-01T10:31:19.272Z,5.97
2023-05-01T10:33:46.955Z,4.15
2023-05-01T10:36:19.435Z,6.88
2023-05-01T10:38:48.444Z,4.35
2023-05-01T10:41:19.051Z,3.85
2023-05-01T10:43:45.476Z,4.55
2023-05-01T10:46:20.984Z,4.57
2023-05-01T10:48:47.364Z,5.40
2023-05-01T10:51:27.189Z,5.85
2023-05-01T10:54:22.316Z,3.00
2023-05-01T10:56:48.772Z,4.18
2023-05-01T10:59:15.143Z,4.53
2023-05-01T11:01:47.546Z,3.97
2023-05-01T11:04:22.804Z,4.25
2023-05-01T11:06:58.343Z,4.85
2023-05-01T11:09:49.101Z,3.97
2023-05-01T11:12:51.676Z,3.08
2023-05-01T11:15:28.900Z,3.00
2023-05-01T11:20:25.509Z,3.88
2023-05-01T11:22:56.438Z,3.42
2023-05-01T11:25:24.600Z,3.95
2023-05-01T11:27:53.341Z,3.40
2023-05-01T11:30:20.344Z,2.90
2023-05-01T11:32:48.937Z,3.50
2023-05-01T11:35:18.215Z,2.50
2023-05-01T11:37:45.312Z,3.17
2023-05-01T11:40:28.876Z,2.30
2023-05-01T11:43:09.159Z,4.05
2023-05-01T11:45:37.197Z,3.25
2023-05-01T11:48:05.070Z,4.28
2023-05-01T11:50:37.069Z,3.25
2023-05-01T11:53:11.805Z,3.85
2023-05-01T11:55:41.067Z,4.13
2023-05-01T11:58:07.900Z,4.95
2023-05-01T12:00:38.161Z,2.55
2023-05-01T12:03:07.197Z,2.50
2023-05-01T12:05:37.234Z,6.43
2023-05-01T12:08:09.897Z,5.10
2023-05-01T12:10:37.504Z,5.38
2023-05-01T12:13:05.246Z,4.22
2023-05-01T12:15:35.208Z,4.63
2023-05-01T12:18:01.855Z,2.95
2023-05-01T12:20:54.273Z,5.13
2023-05-01T12:23:39.056Z,3.63
2023-05-01T12:26:25.703Z,4.10
2023-05-01T12:28:57.088Z,2.65
2023-05-01T12:31:24.885Z,3.85
2023-05-01T12:33:58.747Z,3.78
2023-05-01T12:36:28.537Z,1.90
2023-05-01T12:39:03.582Z,4.32
2023-05-01T12:41:45.998Z,1.95
2023-05-01T12:44:26.148Z,2.15
2023-05-01T12:46:58.365Z,2.50
2023-05-01T12:49:25.832Z,2.30
2023-05-01T12:51:54.577Z,1.85
2023-05-01T12:54:27.733Z,5.68
2023-05-01T12:57:04.473Z,3.38
2023-05-01T12:59:31.257Z,3.38
2023-05-01T13:02:02.807Z,3.28
2023-05-01T13:04:29.707Z,4.07
2023-05-01T13:06:57.011Z,1.20
2023-05-01T13:12:02.199Z,3.65
2023-05-01T13:14:30.758Z,2.05
2023-05-01T13:16:57.253Z,2.55
2023-05-01T13:19:28.700Z,2.47
2023-05-01T13:21:57.552Z,2.40
2023-05-01T13:24:24.989Z,3.75
2023-05-01T13:27:03.602Z,1.55
2023-05-01T13:29:32.331Z,1.75
2023-05-01T13:34:31.573Z,3.58
2023-05-01T13:36:58.547Z,2.30
2023-05-01T13:39:25.731Z,1.65
2023-05-01T13:41:53.115Z,2.17
2023-05-01T13:44:20.929Z,3.10
2023-05-01T13:46:48.363Z,3.55
2023-05-01T13:49:17.677Z,1.25
2023-05-01T13:51:45.016Z,1.65
2023-05-01T13:56:39.846Z,2.38
2023-05-01T13:59:07.654Z,1.90
2023-05-01T14:01:46.713Z,4.75
2023-05-01T14:04:18.228Z,1.30
2023-05-01T14:06:46.923Z,2.00
2023-05-01T14:09:17.333Z,2.10
2023-05-01T14:11:46.680Z,1.58
2023-05-01T14:14:17.318Z,1.38
2023-05-01T14:16:50.976Z,2.20
2023-05-01T14:19:18.300Z,2.15
2023-05-01T14:24:11.389Z,1.60
2023-05-01T14:26:43.306Z,1.37
2023-05-01T14:29:25.963Z,2.10
2023-05-01T14:31:52.898Z,1.77
2023-05-01T14:34:20.380Z,1.92
2023-05-01T14:36:47.329Z,5.53
2023-05-01T14:39:15.779Z,1.40
2023-05-01T14:41:42.731Z,1.55
2023-05-01T14:44:15.620Z,1.30
2023-05-01T14:46:47.335Z,1.92
2023-05-01T14:49:20.136Z,3.92
2023-05-01T14:51:46.758Z,1.33
2023-05-01T14:54:14.541Z,2.38
2023-05-01T14:56:42.873Z,1.48
2023-05-01T14:59:09.232Z,1.63
2023-05-01T15:01:35.768Z,2.13
2023-05-01T15:04:03.804Z,1.80
2023-05-01T15:06:30.615Z,2.63
2023-05-01T15:08:57.053Z,2.07
2023-05-01T15:11:23.422Z,1.98
2023-05-01T15:13:50.463Z,2.28
2023-05-01T15:16:17.254Z,2.95
2023-05-01T15:18:43.832Z,2.25
2023-05-01T15:21:10.300Z,2.67
2023-05-01T15:23:37.216Z,5.57
2023-05-01T15:26:03.928Z,2.33
2023-05-01T15:28:30.519Z,10.95
2023-05-01T15:30:56.963Z,6.63
2023-05-01T15:33:23.530Z,1.87
2023-05-01T15:35:51.588Z,1.55
2023-05-01T15:38:18.229Z,1.98
2023-05-01T15:40:45.557Z,1.88
2023-05-01T15:45:43.512Z,2.03
2023-05-01T15:48:11.324Z,2.47
2023-05-01T15:50:37.895Z,2.50
2023-05-01T15:53:04.638Z,2.40
2023-05-01T15:55:31.219Z,3.28
2023-05-01T15:57:57.608Z,2.75
2023-05-01T16:00:25.370Z,3.63
2023-05-01T16:02:52.209Z,2.45
2023-05-01T16:05:21.428Z,4.18
2023-05-01T16:07:56.174Z,2.53
2023-05-01T16:10:23.261Z,2.45
2023-05-01T16:12:50.938Z,3.42
2023-05-01T16:15:18.078Z,4.10
2023-05-01T16:17:45.636Z,6.97
2023-05-01T16:20:13.440Z,1.98
2023-05-01T16:22:41.124Z,2.00
2023-05-01T16:25:09.506Z,2.45
2023-05-01T16:27:41.284Z,2.50
2023-05-01T16:30:09.430Z,2.80
2023-05-01T16:32:36.114Z,7.43
2023-05-01T16:35:05.355Z,2.00
2023-05-01T16:37:33.999Z,3.17
2023-05-01T16:40:01.320Z,3.67
2023-05-01T16:42:28.155Z,2.97
2023-05-01T16:44:56.478Z,5.37
2023-05-01T16:47:22.969Z,2.38
2023-05-01T16:49:49.374Z,3.43
2023-05-01T16:52:17.035Z,5.10
2023-05-01T16:54:43.419Z,3.17
2023-05-01T16:57:10.134Z,2.10
2023-05-01T16:59:37.712Z,3.58
2023-05-01T17:02:05.587Z,2.35
2023-05-01T17:04:32.323Z,2.42
2023-05-01T17:06:58.873Z,3.38
2023-05-01T17:09:25.386Z,3.10
2023-05-01T17:11:51.790Z,2.63
2023-05-01T17:14:19.019Z,2.57
2023-05-01T17:16:46.311Z,2.13
2023-05-01T17:19:14.516Z,2.85
2023-05-01T17:21:41.298Z,2.95
2023-05-01T17:24:07.680Z,2.30
2023-05-01T17:26:34.067Z,4.20
2023-05-01T17:29:02.775Z,4.40
2023-05-01T17:31:29.504Z,4.20
2023-05-01T17:33:55.902Z,3.92
2023-05-01T17:36:23.575Z,5.63
2023-05-01T17:38:54.599Z,2.80
2023-05-01T17:41:21.191Z,2.70
2023-05-01T17:43:47.690Z,2.30
2023-05-01T17:46:14.325Z,3.15
2023-05-01T17:48:44.481Z,2.30
2023-05-01T17:51:13.830Z,8.57
2023-05-01T17:53:40.377Z,3.00
2023-05-01T17:56:07.051Z,5.63
2023-05-01T17:58:33.852Z,4.22
2023-05-01T18:01:00.360Z,6.82
2023-05-01T18:03:27.050Z,5.77
2023-05-01T18:05:53.558Z,4.95
2023-05-01T18:08:20.028Z,5.38
2023-05-01T18:10:46.497Z,4.43
2023-05-01T18:13:12.956Z,10.43
2023-05-01T18:15:39.352Z,4.27
2023-05-01T18:18:05.806Z,6.50
2023-05-01T18:20:32.199Z,8.83
2023-05-01T18:22:58.586Z,6.40
2023-05-01T18:25:25.105Z,8.52
2023-05-01T18:27:51.540Z,9.57
2023-05-01T18:30:17.962Z,9.87
2023-05-01T18:32:47.587Z,9.45
2023-05-01T18:35:15.679Z,10.15
2023-05-01T18:37:42.804Z,8.75
2023-05-01T18:40:09.889Z,10.73
2023-05-01T18:42:36.303Z,8.65
2023-05-01T18:45:03.150Z,9.97
2023-05-01T18:47:29.707Z,7.85
2023-05-01T18:49:56.190Z,7.22
2023-05-01T18:52:22.674Z,8.23
2023-05-01T18:54:49.287Z,9.15
2023-05-01T18:57:15.710Z,10.32
2023-05-01T18:59:43.068Z,5.53
2023-05-01T19:02:11.244Z,6.07
2023-05-01T19:04:49.327Z,4.50
2023-05-01T19:07:22.260Z,5.00
2023-05-01T19:09:48.619Z,4.87
2023-05-01T19:12:16.343Z,7.55
2023-05-01T19:14:42.779Z,4.72
2023-05-01T19:17:09.129Z,8.68
2023-05-01T19:19:35.526Z,8.52
2023-05-01T19:22:02.034Z,6.78
2023-05-01T19:24:28.641Z,10.17
2023-05-01T19:26:55.332Z,10.35
2023-05-01T19:29:21.742Z,13.38
2023-05-01T19:31:48.318Z,8.48
2023-05-01T19:34:14.755Z,7.07
2023-05-01T19:36:41.146Z,6.18
2023-05-01T19:39:07.500Z,7.18
2023-05-01T19:41:34.103Z,7.13
2023-05-01T19:44:00.879Z,8.67
2023-05-01T19:46:27.271Z,9.50
2023-05-01T19:48:53.683Z,6.72
2023-05-01T19:51:20.086Z,6.70
2023-05-01T19:53:47.022Z,5.97
2023-05-01T19:56:13.429Z,9.18
2023-05-01T19:58:39.926Z,9.25
2023-05-01T20:01:09.113Z,5.83
2023-05-01T20:03:35.628Z,6.45
2023-05-01T20:06:02.085Z,7.07
2023-05-01T20:08:28.552Z,8.43
2023-05-01T20:10:54.915Z,6.60
2023-05-01T20:13:21.277Z,7.85
2023-05-01T20:15:47.648Z,8.50
2023-05-01T20:18:14.144Z,7.60
2023-05-01T20:20:40.699Z,8.80
2023-05-01T20:23:10.900Z,11.07
2023-05-01T20:25:37.496Z,7.60
2023-05-01T20:28:04.542Z,7.50
2023-05-01T20:30:30.909Z,9.63
2023-05-01T20:32:57.335Z,11.10
2023-05-01T20:35:23.917Z,13.32
2023-05-01T20:37:50.453Z,12.13
2023-05-01T20:40:18.664Z,12.63
2023-05-01T20:42:45.116Z,14.52
2023-05-01T20:45:11.683Z,11.80
2023-05-01T20:47:38.103Z,11.43
2023-05-01T20:50:04.823Z,12.13
2023-05-01T20:52:31.224Z,13.52
2023-05-01T20:54:57.661Z,10.40
2023-05-01T20:57:24.095Z,10.27
2023-05-01T20:59:50.874Z,10.57
2023-05-01T21:02:17.472Z,9.70
2023-05-01T21:04:44.178Z,5.27
2023-05-01T21:07:10.808Z,5.40
2023-05-01T21:09:37.393Z,6.20
2023-05-01T21:12:06.037Z,4.80
2023-05-01T21:14:32.479Z,4.63
2023-05-01T21:16:58.902Z,4.18
2023-05-01T21:19:25.328Z,4.45
2023-05-01T21:21:55.093Z,3.45
2023-05-01T21:24:25.714Z,4.63
2023-05-01T21:26:54.972Z,6.65
2023-05-01T21:29:21.550Z,5.13
2023-05-01T21:31:49.039Z,3.30
2023-05-01T21:36:49.243Z,4.00
2023-05-01T21:39:15.780Z,5.20
2023-05-01T21:41:42.154Z,4.27
2023-05-01T21:44:09.523Z,5.18
2023-05-01T21:46:37.070Z,4.78
2023-05-01T21:49:03.636Z,3.53
2023-05-01T21:51:32.131Z,4.10
2023-05-01T21:54:02.242Z,4.50
2023-05-01T21:56:28.698Z,5.03
2023-05-01T21:59:05.523Z,4.90
2023-05-01T22:01:32.053Z,5.63
2023-05-01T22:03:58.583Z,8.67
2023-05-01T22:06:25.470Z,7.72
2023-05-01T22:08:52.048Z,6.90
2023-05-01T22:11:19.569Z,4.50
2023-05-01T22:16:13.797Z,8.02
2023-05-01T22:18:40.697Z,5.05
2023-05-01T22:21:07.067Z,5.53
2023-05-01T22:23:33.633Z,5.28
2023-05-01T22:26:00.296Z,5.77
2023-05-01T22:28:26.956Z,5.40
2023-05-01T22:30:53.483Z,5.77
2023-05-01T22:33:20.376Z,5.10
2023-05-01T22:35:46.708Z,7.55
2023-05-01T22:38:13.074Z,8.18
2023-05-01T22:40:39.428Z,7.43
2023-05-01T22:43:06.136Z,6.00
2023-05-01T22:45:32.557Z,5.40
2023-05-01T22:47:58.948Z,5.28
2023-05-01T22:50:25.391Z,6.95
2023-05-01T22:52:52.297Z,5.47
2023-05-01T22:55:18.686Z,7.78
2023-05-01T22:57:45.605Z,6.63
2023-05-01T23:00:13.001Z,6.28
2023-05-01T23:05:07.170Z,4.88
2023-05-01T23:07:33.539Z,6.57
2023-05-01T23:10:00.454Z,7.82
2023-05-01T23:12:27.746Z,9.23
2023-05-01T23:14:55.084Z,7.93
2023-05-01T23:17:21.861Z,5.15
2023-05-01T23:19:48.360Z,5.38
2023-05-01T23:22:14.804Z,8.27
2023-05-01T23:24:48.406Z,6.55
2023-05-01T23:27:19.168Z,9.57
2023-05-01T23:29:54.506Z,5.80
2023-05-01T23:32:26.760Z,6.43
2023-05-01T23:34:54.979Z,7.35
2023-05-01T23:37:22.013Z,6.05
2023-05-01T23:39:48.563Z,5.20
2023-05-01T23:42:15.055Z,6.77
2023-05-01T23:44:41.456Z,8.75
2023-05-01T23:47:07.930Z,7.93
2023-05-01T23:49:34.419Z,7.30
2023-05-01T23:52:00.804Z,5.32
2023-05-01T23:54:27.327Z,5.65
2023-05-01T23:56:54.401Z,6.95
2023-05-01T23:59:20.794Z,5.57
